sensor_id;sensor_type;location;lat;lon;timestamp;temperature;humidity
22130;DHT22;11231;50.746;4.272;2023-08-01T00:00:45;18.80;99.90
22130;DHT22;11231;50.746;4.272;2023-08-01T00:03:11;18.80;99.90
22130;DHT22;11231;50.746;4.272;2023-08-01T00:05:36;18.80;99.90
22130;DHT22;11231;50.746;4.272;2023-08-01T00:08:04;18.70;99.90
22130;DHT22;11231;50.746;4.272;2023-08-01T00:10:29;18.70;99.90
22130;DHT22;11231;50.746;4.272;2023-08-01T00:12:55;18.60;99.90
22130;DHT22;11231;50.746;4.272;2023-08-01T00:15:21;18.60;99.90
22130;DHT22;11231;50.746;4.272;2023-08-01T00:17:46;18.60;99.90
22130;DHT22;11231;50.746;4.272;2023-08-01T00:20:12;18.60;99.90
22130;DHT22;11231;50.746;4.272;2023-08-01T00:22:38;18.60;99.90
22130;DHT22;11231;50.746;4.272;2023-08-01T00:25:04;18.60;99.90
22130;DHT22;11231;50.746;4.272;2023-08-01T00:27:29;18.60;99.90
22130;DHT22;11231;50.746;4.272;2023-08-01T00:29:57;18.50;99.90
22130;DHT22;11231;50.746;4.272;2023-08-01T00:32:23;18.50;99.90
22130;DHT22;11231;50.746;4.272;2023-08-01T00:34:50;18.60;99.90
22130;DHT22;11231;50.746;4.272;2023-08-01T00:37:17;18.60;99.90
22130;DHT22;11231;50.746;4.272;2023-08-01T00:39:43;18.60;99.90
22130;DHT22;11231;50.746;4.272;2023-08-01T00:42:08;18.60;99.90
22130;DHT22;11231;50.746;4.272;2023-08-01T00:44:34;18.50;99.90
22130;DHT22;11231;50.746;4.272;2023-08-01T00:47:00;18.50;99.90
22130;DHT22;11231;50.746;4.272;2023-08-01T00:49:26;18.40;99.90
22130;DHT22;11231;50.746;4.272;2023-08-01T00:51:52;18.40;99.90
22130;DHT22;11231;50.746;4.272;2023-08-01T00:54:17;18.40;99.90
22130;DHT22;11231;50.746;4.272;2023-08-01T00:56:43;18.20;99.90
22130;DHT22;11231;50.746;4.272;2023-08-01T00:59:11;18.20;99.90
22130;DHT22;11231;50.746;4.272;2023-08-01T01:01:37;18.20;99.90
22130;DHT22;11231;50.746;4.272;2023-08-01T01:04:03;18.30;99.90
22130;DHT22;11231;50.746;4.272;2023-08-01T01:06:47;18.30;99.90
22130;DHT22;11231;50.746;4.272;2023-08-01T01:09:16;18.20;99.90
22130;DHT22;11231;50.746;4.272;2023-08-01T01:11:42;18.30;99.90
22130;DHT22;11231;50.746;4.272;2023-08-01T01:14:08;18.40;99.90
22130;DHT22;11231;50.746;4.272;2023-08-01T01:16:34;18.40;99.90
22130;DHT22;11231;50.746;4.272;2023-08-01T01:19:00;18.20;99.90
22130;DHT22;11231;50.746;4.272;2023-08-01T01:21:25;18.20;99.90
22130;DHT22;11231;50.746;4.272;2023-08-01T01:23:52;18.20;99.90
22130;DHT22;11231;50.746;4.272;2023-08-01T01:26:18;18.10;99.90
22130;DHT22;11231;50.746;4.272;2023-08-01T01:28:48;18.10;99.90
22130;DHT22;11231;50.746;4.272;2023-08-01T01:31:15;18.10;99.90
22130;DHT22;11231;50.746;4.272;2023-08-01T01:33:42;18.10;99.90
22130;DHT22;11231;50.746;4.272;2023-08-01T01:36:08;18.10;99.90
22130;DHT22;11231;50.746;4.272;2023-08-01T01:38:34;18.10;99.90
22130;DHT22;11231;50.746;4.272;2023-08-01T01:41:00;18.20;99.90
22130;DHT22;11231;50.746;4.272;2023-08-01T01:43:25;18.10;99.90
22130;DHT22;11231;50.746;4.272;2023-08-01T01:45:51;18.20;99.90
22130;DHT22;11231;50.746;4.272;2023-08-01T01:48:17;18.20;99.90
22130;DHT22;11231;50.746;4.272;2023-08-01T01:50:42;18.20;99.90
22130;DHT22;11231;50.746;4.272;2023-08-01T01:53:08;18.20;99.90
22130;DHT22;11231;50.746;4.272;2023-08-01T01:55:34;18.10;99.90
22130;DHT22;11231;50.746;4.272;2023-08-01T01:58:01;18.10;99.90
22130;DHT22;11231;50.746;4.272;2023-08-01T02:00:26;18.20;99.90
22130;DHT22;11231;50.746;4.272;2023-08-01T02:02:52;18.20;99.90
22130;DHT22;11231;50.746;4.272;2023-08-01T02:05:18;18.20;99.90
22130;DHT22;11231;50.746;4.272;2023-08-01T02:07:44;18.20;99.90
22130;DHT22;11231;50.746;4.272;2023-08-01T02:10:09;18.20;99.90
22130;DHT22;11231;50.746;4.272;2023-08-01T02:12:35;18.20;99.90
22130;DHT22;11231;50.746;4.272;2023-08-01T02:15:01;18.10;99.90
22130;DHT22;11231;50.746;4.272;2023-08-01T02:17:27;18.00;99.90
22130;DHT22;11231;50.746;4.272;2023-08-01T02:19:53;18.10;99.90
22130;DHT22;11231;50.746;4.272;2023-08-01T02:22:19;18.10;99.90
22130;DHT22;11231;50.746;4.272;2023-08-01T02:24:45;18.00;99.90
22130;DHT22;11231;50.746;4.272;2023-08-01T02:27:10;18.10;99.90
22130;DHT22;11231;50.746;4.272;2023-08-01T02:29:36;18.00;99.90
22130;DHT22;11231;50.746;4.272;2023-08-01T02:32:02;18.00;99.90
22130;DHT22;11231;50.746;4.272;2023-08-01T02:34:28;18.00;99.90
22130;DHT22;11231;50.746;4.272;2023-08-01T02:36:53;18.00;99.90
22130;DHT22;11231;50.746;4.272;2023-08-01T02:39:19;18.00;99.90
22130;DHT22;11231;50.746;4.272;2023-08-01T02:41:45;18.00;99.90
22130;DHT22;11231;50.746;4.272;2023-08-01T02:44:10;18.00;99.90
22130;DHT22;11231;50.746;4.272;2023-08-01T02:46:36;18.10;99.90
22130;DHT22;11231;50.746;4.272;2023-08-01T02:49:02;18.10;99.90
22130;DHT22;11231;50.746;4.272;2023-08-01T02:51:28;18.10;99.90
22130;DHT22;11231;50.746;4.272;2023-08-01T02:53:54;18.10;99.90
22130;DHT22;11231;50.746;4.272;2023-08-01T02:56:19;18.20;99.90
22130;DHT22;11231;50.746;4.272;2023-08-01T02:58:45;18.10;99.90
22130;DHT22;11231;50.746;4.272;2023-08-01T03:01:11;18.10;99.90
22130;DHT22;11231;50.746;4.272;2023-08-01T03:03:37;18.10;99.90
22130;DHT22;11231;50.746;4.272;2023-08-01T03:06:03;18.10;99.90
22130;DHT22;11231;50.746;4.272;2023-08-01T03:08:29;18.10;99.90
22130;DHT22;11231;50.746;4.272;2023-08-01T03:10:55;18.00;99.90
22130;DHT22;11231;50.746;4.272;2023-08-01T03:13:21;18.00;99.90
22130;DHT22;11231;50.746;4.272;2023-08-01T03:15:50;18.00;99.90
22130;DHT22;11231;50.746;4.272;2023-08-01T03:18:16;17.90;99.90
22130;DHT22;11231;50.746;4.272;2023-08-01T03:20:41;17.80;99.90
22130;DHT22;11231;50.746;4.272;2023-08-01T03:23:07;17.80;99.90
22130;DHT22;11231;50.746;4.272;2023-08-01T03:25:33;17.90;99.90
22130;DHT22;11231;50.746;4.272;2023-08-01T03:27:58;17.90;99.90
22130;DHT22;11231;50.746;4.272;2023-08-01T03:30:24;17.90;99.90
22130;DHT22;11231;50.746;4.272;2023-08-01T03:32:50;17.80;99.90
22130;DHT22;11231;50.746;4.272;2023-08-01T03:35:16;17.90;99.90
22130;DHT22;11231;50.746;4.272;2023-08-01T03:37:42;17.90;99.90
22130;DHT22;11231;50.746;4.272;2023-08-01T03:40:08;18.00;99.90
22130;DHT22;11231;50.746;4.272;2023-08-01T03:42:37;18.10;99.90
22130;DHT22;11231;50.746;4.272;2023-08-01T03:45:03;18.00;99.90
22130;DHT22;11231;50.746;4.272;2023-08-01T03:47:29;18.00;99.90
22130;DHT22;11231;50.746;4.272;2023-08-01T03:49:55;18.00;99.90
22130;DHT22;11231;50.746;4.272;2023-08-01T03:52:21;18.10;99.90
22130;DHT22;11231;50.746;4.272;2023-08-01T03:54:48;18.10;99.90
22130;DHT22;11231;50.746;4.272;2023-08-01T03:57:14;18.00;99.90
22130;DHT22;11231;50.746;4.272;2023-08-01T03:59:40;17.90;99.90
22130;DHT22;11231;50.746;4.272;2023-08-01T04:02:05;17.80;99.90
22130;DHT22;11231;50.746;4.272;2023-08-01T04:04:31;17.80;99.90
22130;DHT22;11231;50.746;4.272;2023-08-01T04:06:57;17.90;99.90
22130;DHT22;11231;50.746;4.272;2023-08-01T04:09:23;17.90;99.90
22130;DHT22;11231;50.746;4.272;2023-08-01T04:11:48;17.80;99.90
22130;DHT22;11231;50.746;4.272;2023-08-01T04:14:14;17.80;99.90
22130;DHT22;11231;50.746;4.272;2023-08-01T04:16:40;17.80;99.90
22130;DHT22;11231;50.746;4.272;2023-08-01T04:19:06;17.80;99.90
22130;DHT22;11231;50.746;4.272;2023-08-01T04:21:31;17.80;99.90
22130;DHT22;11231;50.746;4.272;2023-08-01T04:23:57;17.60;99.90
22130;DHT22;11231;50.746;4.272;2023-08-01T04:26:23;17.60;99.90
22130;DHT22;11231;50.746;4.272;2023-08-01T04:28:48;17.40;99.90
22130;DHT22;11231;50.746;4.272;2023-08-01T04:31:14;17.40;99.90
22130;DHT22;11231;50.746;4.272;2023-08-01T04:33:40;17.40;99.90
22130;DHT22;11231;50.746;4.272;2023-08-01T04:36:06;17.50;99.90
22130;DHT22;11231;50.746;4.272;2023-08-01T04:38:32;17.50;99.90
22130;DHT22;11231;50.746;4.272;2023-08-01T04:40:57;17.40;99.90
22130;DHT22;11231;50.746;4.272;2023-08-01T04:43:23;17.40;99.90
22130;DHT22;11231;50.746;4.272;2023-08-01T04:45:49;17.50;99.90
22130;DHT22;11231;50.746;4.272;2023-08-01T04:48:14;17.60;99.90
22130;DHT22;11231;50.746;4.272;2023-08-01T04:50:40;17.70;99.90
22130;DHT22;11231;50.746;4.272;2023-08-01T04:53:06;17.70;99.90
22130;DHT22;11231;50.746;4.272;2023-08-01T04:55:32;17.80;99.90
22130;DHT22;11231;50.746;4.272;2023-08-01T04:57:57;17.80;99.90
22130;DHT22;11231;50.746;4.272;2023-08-01T05:00:23;17.90;99.90
22130;DHT22;11231;50.746;4.272;2023-08-01T05:02:49;17.70;99.90
22130;DHT22;11231;50.746;4.272;2023-08-01T05:05:15;17.80;99.90
22130;DHT22;11231;50.746;4.272;2023-08-01T05:07:41;17.90;99.90
22130;DHT22;11231;50.746;4.272;2023-08-01T05:10:08;18.00;99.90
22130;DHT22;11231;50.746;4.272;2023-08-01T05:12:33;17.90;99.90
22130;DHT22;11231;50.746;4.272;2023-08-01T05:14:59;17.80;99.90
22130;DHT22;11231;50.746;4.272;2023-08-01T05:17:25;17.80;99.90
22130;DHT22;11231;50.746;4.272;2023-08-01T05:19:51;18.00;99.90
22130;DHT22;11231;50.746;4.272;2023-08-01T05:22:16;18.20;99.90
22130;DHT22;11231;50.746;4.272;2023-08-01T05:24:42;18.00;99.90
22130;DHT22;11231;50.746;4.272;2023-08-01T05:27:08;18.10;99.90
22130;DHT22;11231;50.746;4.272;2023-08-01T05:29:33;18.10;99.90
22130;DHT22;11231;50.746;4.272;2023-08-01T05:31:59;18.10;99.90
22130;DHT22;11231;50.746;4.272;2023-08-01T05:34:25;18.20;99.90
22130;DHT22;11231;50.746;4.272;2023-08-01T05:36:50;18.00;99.90
22130;DHT22;11231;50.746;4.272;2023-08-01T05:39:16;18.10;99.90
22130;DHT22;11231;50.746;4.272;2023-08-01T05:41:43;18.00;99.90
22130;DHT22;11231;50.746;4.272;2023-08-01T05:44:08;18.10;99.90
22130;DHT22;11231;50.746;4.272;2023-08-01T05:46:34;18.00;99.90
22130;DHT22;11231;50.746;4.272;2023-08-01T05:49:00;18.10;99.90
22130;DHT22;11231;50.746;4.272;2023-08-01T05:51:26;17.90;99.90
22130;DHT22;11231;50.746;4.272;2023-08-01T05:53:51;18.10;99.90
22130;DHT22;11231;50.746;4.272;2023-08-01T05:56:17;18.30;99.90
22130;DHT22;11231;50.746;4.272;2023-08-01T05:58:43;18.40;99.90
22130;DHT22;11231;50.746;4.272;2023-08-01T06:01:10;18.40;99.90
22130;DHT22;11231;50.746;4.272;2023-08-01T06:03:37;18.40;99.90
22130;DHT22;11231;50.746;4.272;2023-08-01T06:06:03;18.50;99.90
22130;DHT22;11231;50.746;4.272;2023-08-01T06:08:30;18.40;99.90
22130;DHT22;11231;50.746;4.272;2023-08-01T06:10:55;18.40;99.90
22130;DHT22;11231;50.746;4.272;2023-08-01T06:13:21;18.70;99.90
22130;DHT22;11231;50.746;4.272;2023-08-01T06:15:47;18.70;99.90
22130;DHT22;11231;50.746;4.272;2023-08-01T06:18:12;19.20;99.90
22130;DHT22;11231;50.746;4.272;2023-08-01T06:20:38;19.80;99.90
22130;DHT22;11231;50.746;4.272;2023-08-01T06:23:04;20.20;99.90
22130;DHT22;11231;50.746;4.272;2023-08-01T06:25:30;20.40;99.90
22130;DHT22;11231;50.746;4.272;2023-08-01T06:27:56;20.60;99.90
22130;DHT22;11231;50.746;4.272;2023-08-01T06:30:22;20.40;99.90
22130;DHT22;11231;50.746;4.272;2023-08-01T06:32:47;20.00;99.90
22130;DHT22;11231;50.746;4.272;2023-08-01T06:35:13;19.80;99.90
22130;DHT22;11231;50.746;4.272;2023-08-01T06:37:39;20.00;99.90
22130;DHT22;11231;50.746;4.272;2023-08-01T06:40:05;20.20;99.90
22130;DHT22;11231;50.746;4.272;2023-08-01T06:42:31;20.30;99.90
22130;DHT22;11231;50.746;4.272;2023-08-01T06:44:57;20.00;99.90
22130;DHT22;11231;50.746;4.272;2023-08-01T06:47:22;20.00;99.90
22130;DHT22;11231;50.746;4.272;2023-08-01T06:49:48;20.00;99.90
22130;DHT22;11231;50.746;4.272;2023-08-01T06:52:14;20.40;99.90
22130;DHT22;11231;50.746;4.272;2023-08-01T06:54:39;21.20;99.90
22130;DHT22;11231;50.746;4.272;2023-08-01T06:57:06;21.70;99.90
22130;DHT22;11231;50.746;4.272;2023-08-01T06:59:32;21.80;99.90
22130;DHT22;11231;50.746;4.272;2023-08-01T07:01:58;22.50;99.90
22130;DHT22;11231;50.746;4.272;2023-08-01T07:04:23;21.90;99.90
22130;DHT22;11231;50.746;4.272;2023-08-01T07:06:49;21.40;99.90
22130;DHT22;11231;50.746;4.272;2023-08-01T07:09:15;21.70;99.90
22130;DHT22;11231;50.746;4.272;2023-08-01T07:11:41;22.00;99.90
22130;DHT22;11231;50.746;4.272;2023-08-01T07:14:06;22.40;99.90
22130;DHT22;11231;50.746;4.272;2023-08-01T07:16:32;22.40;99.90
22130;DHT22;11231;50.746;4.272;2023-08-01T07:19:00;22.20;99.90
22130;DHT22;11231;50.746;4.272;2023-08-01T07:21:26;22.50;99.90
22130;DHT22;11231;50.746;4.272;2023-08-01T07:23:51;22.10;99.90
22130;DHT22;11231;50.746;4.272;2023-08-01T07:26:17;21.50;99.90
22130;DHT22;11231;50.746;4.272;2023-08-01T07:28:43;21.70;99.90
22130;DHT22;11231;50.746;4.272;2023-08-01T07:31:09;22.00;99.90
22130;DHT22;11231;50.746;4.272;2023-08-01T07:33:36;22.10;99.90
22130;DHT22;11231;50.746;4.272;2023-08-01T07:36:02;22.20;99.90
22130;DHT22;11231;50.746;4.272;2023-08-01T07:38:28;21.70;99.90
22130;DHT22;11231;50.746;4.272;2023-08-01T07:40:55;21.40;99.90
22130;DHT22;11231;50.746;4.272;2023-08-01T07:43:20;21.40;99.90
22130;DHT22;11231;50.746;4.272;2023-08-01T07:45:46;21.60;99.90
22130;DHT22;11231;50.746;4.272;2023-08-01T07:48:12;22.40;99.90
22130;DHT22;11231;50.746;4.272;2023-08-01T07:50:38;23.00;99.90
22130;DHT22;11231;50.746;4.272;2023-08-01T07:53:04;23.70;99.90
22130;DHT22;11231;50.746;4.272;2023-08-01T07:55:33;23.80;99.90
22130;DHT22;11231;50.746;4.272;2023-08-01T07:57:59;24.40;99.90
22130;DHT22;11231;50.746;4.272;2023-08-01T08:00:25;25.20;99.90
22130;DHT22;11231;50.746;4.272;2023-08-01T08:02:51;26.40;99.90
22130;DHT22;11231;50.746;4.272;2023-08-01T08:05:16;28.20;99.90
22130;DHT22;11231;50.746;4.272;2023-08-01T08:07:42;30.00;99.90
22130;DHT22;11231;50.746;4.272;2023-08-01T08:10:08;30.40;99.90
22130;DHT22;11231;50.746;4.272;2023-08-01T08:12:34;30.40;99.90
22130;DHT22;11231;50.746;4.272;2023-08-01T08:14:59;27.90;99.90
22130;DHT22;11231;50.746;4.272;2023-08-01T08:17:25;26.20;99.90
22130;DHT22;11231;50.746;4.272;2023-08-01T08:19:51;24.80;99.90
22130;DHT22;11231;50.746;4.272;2023-08-01T08:22:16;23.00;99.90
22130;DHT22;11231;50.746;4.272;2023-08-01T08:24:42;22.50;99.90
22130;DHT22;11231;50.746;4.272;2023-08-01T08:27:08;23.10;99.90
22130;DHT22;11231;50.746;4.272;2023-08-01T08:29:33;24.60;99.90
22130;DHT22;11231;50.746;4.272;2023-08-01T08:31:59;26.00;99.90
22130;DHT22;11231;50.746;4.272;2023-08-01T08:34:25;26.70;99.90
22130;DHT22;11231;50.746;4.272;2023-08-01T08:36:51;27.60;99.90
22130;DHT22;11231;50.746;4.272;2023-08-01T08:39:17;28.90;99.90
22130;DHT22;11231;50.746;4.272;2023-08-01T08:41:48;28.30;99.90
22130;DHT22;11231;50.746;4.272;2023-08-01T08:44:15;27.90;99.90
22130;DHT22;11231;50.746;4.272;2023-08-01T08:46:43;29.20;99.90
22130;DHT22;11231;50.746;4.272;2023-08-01T08:49:10;29.30;99.90
22130;DHT22;11231;50.746;4.272;2023-08-01T08:51:37;29.50;99.90
22130;DHT22;11231;50.746;4.272;2023-08-01T08:54:08;29.50;99.90
22130;DHT22;11231;50.746;4.272;2023-08-01T08:56:34;31.50;99.90
22130;DHT22;11231;50.746;4.272;2023-08-01T08:59:01;31.20;99.90
22130;DHT22;11231;50.746;4.272;2023-08-01T09:01:27;29.70;99.90
22130;DHT22;11231;50.746;4.272;2023-08-01T09:03:53;27.50;99.90
22130;DHT22;11231;50.746;4.272;2023-08-01T09:06:24;27.60;99.90
22130;DHT22;11231;50.746;4.272;2023-08-01T09:08:55;27.40;99.90
22130;DHT22;11231;50.746;4.272;2023-08-01T09:11:21;28.80;99.90
22130;DHT22;11231;50.746;4.272;2023-08-01T09:13:49;29.70;99.90
22130;DHT22;11231;50.746;4.272;2023-08-01T09:16:16;30.50;99.90
22130;DHT22;11231;50.746;4.272;2023-08-01T09:18:51;29.90;99.90
22130;DHT22;11231;50.746;4.272;2023-08-01T09:21:23;28.80;99.90
22130;DHT22;11231;50.746;4.272;2023-08-01T09:23:48;29.50;99.90
22130;DHT22;11231;50.746;4.272;2023-08-01T09:26:15;28.90;99.90
22130;DHT22;11231;50.746;4.272;2023-08-01T09:28:41;27.80;99.90
22130;DHT22;11231;50.746;4.272;2023-08-01T09:31:07;26.30;99.90
22130;DHT22;11231;50.746;4.272;2023-08-01T09:33:42;25.90;99.90
22130;DHT22;11231;50.746;4.272;2023-08-01T09:36:09;25.60;99.90
22130;DHT22;11231;50.746;4.272;2023-08-01T09:38:36;24.70;99.90
22130;DHT22;11231;50.746;4.272;2023-08-01T09:41:03;24.30;99.90
22130;DHT22;11231;50.746;4.272;2023-08-01T09:43:36;23.90;99.90
22130;DHT22;11231;50.746;4.272;2023-08-01T09:46:03;23.50;99.90
22130;DHT22;11231;50.746;4.272;2023-08-01T09:48:29;23.60;99.90
22130;DHT22;11231;50.746;4.272;2023-08-01T09:53:33;23.60;99.90
22130;DHT22;11231;50.746;4.272;2023-08-01T09:56:03;24.20;99.90
22130;DHT22;11231;50.746;4.272;2023-08-01T09:58:33;25.10;99.90
22130;DHT22;11231;50.746;4.272;2023-08-01T10:01:02;25.00;99.90
22130;DHT22;11231;50.746;4.272;2023-08-01T10:03:28;25.00;99.90
22130;DHT22;11231;50.746;4.272;2023-08-01T10:05:56;25.40;99.90
22130;DHT22;11231;50.746;4.272;2023-08-01T10:08:22;27.70;99.90
22130;DHT22;11231;50.746;4.272;2023-08-01T10:10:48;27.90;99.90
22130;DHT22;11231;50.746;4.272;2023-08-01T10:13:14;28.10;99.90
22130;DHT22;11231;50.746;4.272;2023-08-01T10:15:41;28.20;99.90
22130;DHT22;11231;50.746;4.272;2023-08-01T10:18:08;27.50;99.90
22130;DHT22;11231;50.746;4.272;2023-08-01T10:20:36;26.80;99.90
22130;DHT22;11231;50.746;4.272;2023-08-01T10:23:03;27.40;99.90
22130;DHT22;11231;50.746;4.272;2023-08-01T10:25:30;27.90;99.90
22130;DHT22;11231;50.746;4.272;2023-08-01T10:28:00;28.40;99.90
22130;DHT22;11231;50.746;4.272;2023-08-01T10:30:27;28.90;99.90
22130;DHT22;11231;50.746;4.272;2023-08-01T10:32:56;28.10;99.90
22130;DHT22;11231;50.746;4.272;2023-08-01T10:35:39;28.00;99.90
22130;DHT22;11231;50.746;4.272;2023-08-01T10:38:11;28.50;99.90
22130;DHT22;11231;50.746;4.272;2023-08-01T10:40:39;27.60;99.90
22130;DHT22;11231;50.746;4.272;2023-08-01T10:43:05;27.70;99.90
22130;DHT22;11231;50.746;4.272;2023-08-01T10:45:31;28.40;99.90
22130;DHT22;11231;50.746;4.272;2023-08-01T10:48:14;28.70;99.90
22130;DHT22;11231;50.746;4.272;2023-08-01T10:50:40;28.50;99.90
22130;DHT22;11231;50.746;4.272;2023-08-01T10:53:09;27.00;99.90
22130;DHT22;11231;50.746;4.272;2023-08-01T10:55:46;26.20;99.90
22130;DHT22;11231;50.746;4.272;2023-08-01T10:58:13;26.50;99.90
22130;DHT22;11231;50.746;4.272;2023-08-01T11:00:39;27.10;99.90
22130;DHT22;11231;50.746;4.272;2023-08-01T11:03:04;28.60;99.90
22130;DHT22;11231;50.746;4.272;2023-08-01T11:05:30;31.30;99.90
22130;DHT22;11231;50.746;4.272;2023-08-01T11:07:58;30.50;96.40
22130;DHT22;11231;50.746;4.272;2023-08-01T11:10:31;29.90;99.90
22130;DHT22;11231;50.746;4.272;2023-08-01T11:12:57;29.70;99.90
22130;DHT22;11231;50.746;4.272;2023-08-01T11:15:24;27.50;99.90
22130;DHT22;11231;50.746;4.272;2023-08-01T11:17:51;26.10;99.90
22130;DHT22;11231;50.746;4.272;2023-08-01T11:20:19;26.40;99.90
22130;DHT22;11231;50.746;4.272;2023-08-01T11:23:04;27.40;99.90
22130;DHT22;11231;50.746;4.272;2023-08-01T11:25:34;29.40;99.90
22130;DHT22;11231;50.746;4.272;2023-08-01T11:28:09;29.80;99.90
22130;DHT22;11231;50.746;4.272;2023-08-01T11:30:36;30.90;99.90
22130;DHT22;11231;50.746;4.272;2023-08-01T11:33:02;29.80;98.40
22130;DHT22;11231;50.746;4.272;2023-08-01T11:35:38;30.50;99.90
22130;DHT22;11231;50.746;4.272;2023-08-01T11:38:05;32.40;96.30
22130;DHT22;11231;50.746;4.272;2023-08-01T11:40:32;32.40;97.50
22130;DHT22;11231;50.746;4.272;2023-08-01T11:42:58;31.70;92.20
22130;DHT22;11231;50.746;4.272;2023-08-01T11:45:24;30.00;97.90
22130;DHT22;11231;50.746;4.272;2023-08-01T11:47:49;30.90;97.60
22130;DHT22;11231;50.746;4.272;2023-08-01T11:50:21;29.90;94.20
22130;DHT22;11231;50.746;4.272;2023-08-01T11:52:48;29.10;95.60
22130;DHT22;11231;50.746;4.272;2023-08-01T11:55:25;28.60;97.30
22130;DHT22;11231;50.746;4.272;2023-08-01T11:57:58;30.00;99.60
22130;DHT22;11231;50.746;4.272;2023-08-01T12:00:26;30.70;93.90
22130;DHT22;11231;50.746;4.272;2023-08-01T12:03:03;29.00;95.40
22130;DHT22;11231;50.746;4.272;2023-08-01T12:05:29;28.10;97.80
22130;DHT22;11231;50.746;4.272;2023-08-01T12:08:14;27.30;99.90
22130;DHT22;11231;50.746;4.272;2023-08-01T12:10:44;27.60;99.90
22130;DHT22;11231;50.746;4.272;2023-08-01T12:13:22;28.30;99.90
22130;DHT22;11231;50.746;4.272;2023-08-01T12:15:53;28.50;98.90
22130;DHT22;11231;50.746;4.272;2023-08-01T12:18:29;29.70;99.90
22130;DHT22;11231;50.746;4.272;2023-08-01T12:20:55;30.20;97.50
22130;DHT22;11231;50.746;4.272;2023-08-01T12:23:21;29.60;94.80
22130;DHT22;11231;50.746;4.272;2023-08-01T12:25:47;28.40;95.30
22130;DHT22;11231;50.746;4.272;2023-08-01T12:28:14;27.40;99.80
22130;DHT22;11231;50.746;4.272;2023-08-01T12:30:40;27.20;99.90
22130;DHT22;11231;50.746;4.272;2023-08-01T12:33:07;27.90;99.90
22130;DHT22;11231;50.746;4.272;2023-08-01T12:35:33;27.90;99.90
22130;DHT22;11231;50.746;4.272;2023-08-01T12:37:59;27.50;99.90
22130;DHT22;11231;50.746;4.272;2023-08-01T12:40:25;27.40;99.90
22130;DHT22;11231;50.746;4.272;2023-08-01T12:42:50;27.20;99.90
22130;DHT22;11231;50.746;4.272;2023-08-01T12:45:16;26.80;99.90
22130;DHT22;11231;50.746;4.272;2023-08-01T12:47:42;27.00;99.90
22130;DHT22;11231;50.746;4.272;2023-08-01T12:50:08;26.90;99.90
22130;DHT22;11231;50.746;4.272;2023-08-01T12:52:34;27.10;99.90
22130;DHT22;11231;50.746;4.272;2023-08-01T12:54:59;26.80;99.80
22130;DHT22;11231;50.746;4.272;2023-08-01T12:57:25;26.60;99.90
22130;DHT22;11231;50.746;4.272;2023-08-01T12:59:51;26.60;99.90
22130;DHT22;11231;50.746;4.272;2023-08-01T13:02:17;26.00;99.90
22130;DHT22;11231;50.746;4.272;2023-08-01T13:04:42;25.70;99.90
22130;DHT22;11231;50.746;4.272;2023-08-01T13:07:08;25.80;99.90
22130;DHT22;11231;50.746;4.272;2023-08-01T13:09:34;25.80;99.90
22130;DHT22;11231;50.746;4.272;2023-08-01T13:11:59;26.10;99.90
22130;DHT22;11231;50.746;4.272;2023-08-01T13:14:25;25.90;99.90
22130;DHT22;11231;50.746;4.272;2023-08-01T13:16:51;26.00;99.90
22130;DHT22;11231;50.746;4.272;2023-08-01T13:19:18;25.50;99.90
22130;DHT22;11231;50.746;4.272;2023-08-01T13:21:43;25.10;99.90
22130;DHT22;11231;50.746;4.272;2023-08-01T13:24:09;25.00;99.90
22130;DHT22;11231;50.746;4.272;2023-08-01T13:26:35;25.20;99.90
22130;DHT22;11231;50.746;4.272;2023-08-01T13:29:01;25.10;99.90
22130;DHT22;11231;50.746;4.272;2023-08-01T13:31:27;25.60;99.90
22130;DHT22;11231;50.746;4.272;2023-08-01T13:33:54;25.80;99.90
22130;DHT22;11231;50.746;4.272;2023-08-01T13:36:20;25.40;99.90
22130;DHT22;11231;50.746;4.272;2023-08-01T13:38:46;25.30;99.90
22130;DHT22;11231;50.746;4.272;2023-08-01T13:41:12;25.30;99.90
22130;DHT22;11231;50.746;4.272;2023-08-01T13:43:37;25.10;99.90
22130;DHT22;11231;50.746;4.272;2023-08-01T13:46:18;25.10;99.90
22130;DHT22;11231;50.746;4.272;2023-08-01T13:48:46;25.20;99.90
22130;DHT22;11231;50.746;4.272;2023-08-01T13:51:12;25.00;99.90
22130;DHT22;11231;50.746;4.272;2023-08-01T13:53:38;24.80;99.90
22130;DHT22;11231;50.746;4.272;2023-08-01T13:56:13;24.60;99.90
22130;DHT22;11231;50.746;4.272;2023-08-01T13:58:39;24.30;99.90
22130;DHT22;11231;50.746;4.272;2023-08-01T14:01:07;24.20;99.90
22130;DHT22;11231;50.746;4.272;2023-08-01T14:03:33;24.30;99.90
22130;DHT22;11231;50.746;4.272;2023-08-01T14:06:09;24.00;99.90
22130;DHT22;11231;50.746;4.272;2023-08-01T14:08:36;23.90;99.90
22130;DHT22;11231;50.746;4.272;2023-08-01T14:11:04;24.10;99.90
22130;DHT22;11231;50.746;4.272;2023-08-01T14:13:30;24.20;99.90
22130;DHT22;11231;50.746;4.272;2023-08-01T14:15:56;23.90;99.90
22130;DHT22;11231;50.746;4.272;2023-08-01T14:18:22;24.10;99.90
22130;DHT22;11231;50.746;4.272;2023-08-01T14:20:49;24.10;99.90
22130;DHT22;11231;50.746;4.272;2023-08-01T14:23:15;24.60;99.90
22130;DHT22;11231;50.746;4.272;2023-08-01T14:25:40;24.50;99.90
22130;DHT22;11231;50.746;4.272;2023-08-01T14:28:06;24.50;99.90
22130;DHT22;11231;50.746;4.272;2023-08-01T14:30:32;24.70;99.90
22130;DHT22;11231;50.746;4.272;2023-08-01T14:33:01;24.60;99.90
22130;DHT22;11231;50.746;4.272;2023-08-01T14:35:26;24.30;99.90
22130;DHT22;11231;50.746;4.272;2023-08-01T14:37:52;23.90;99.90
22130;DHT22;11231;50.746;4.272;2023-08-01T14:40:18;23.70;99.90
22130;DHT22;11231;50.746;4.272;2023-08-01T14:42:44;23.70;99.90
22130;DHT22;11231;50.746;4.272;2023-08-01T14:45:09;23.70;99.90
22130;DHT22;11231;50.746;4.272;2023-08-01T14:47:38;23.70;99.90
22130;DHT22;11231;50.746;4.272;2023-08-01T14:50:04;23.80;99.90
22130;DHT22;11231;50.746;4.272;2023-08-01T14:52:32;23.80;99.90
22130;DHT22;11231;50.746;4.272;2023-08-01T14:54:58;23.70;99.90
22130;DHT22;11231;50.746;4.272;2023-08-01T14:57:23;23.40;99.90
22130;DHT22;11231;50.746;4.272;2023-08-01T14:59:49;23.30;99.90
22130;DHT22;11231;50.746;4.272;2023-08-01T15:02:15;23.30;99.90
22130;DHT22;11231;50.746;4.272;2023-08-01T15:04:41;23.10;99.90
22130;DHT22;11231;50.746;4.272;2023-08-01T15:07:07;23.00;99.90
22130;DHT22;11231;50.746;4.272;2023-08-01T15:09:33;23.00;99.90
22130;DHT22;11231;50.746;4.272;2023-08-01T15:12:00;22.90;99.90
22130;DHT22;11231;50.746;4.272;2023-08-01T15:14:26;22.90;99.90
22130;DHT22;11231;50.746;4.272;2023-08-01T15:16:52;22.80;99.90
22130;DHT22;11231;50.746;4.272;2023-08-01T15:19:18;22.80;99.90
22130;DHT22;11231;50.746;4.272;2023-08-01T15:21:45;22.80;99.90
22130;DHT22;11231;50.746;4.272;2023-08-01T15:24:11;22.90;99.90
22130;DHT22;11231;50.746;4.272;2023-08-01T15:26:37;23.00;99.90
22130;DHT22;11231;50.746;4.272;2023-08-01T15:29:02;23.00;99.90